首页
METAR-TAF:

METAR-TAF

机场 :

奧西耶克, 克罗地亚

纬度: 45-27N, 经度: 018-48E, 海拔: 88米

当前天气观测

该预报发布于39分钟前的11:30 UTC
风速16节,风向西北
温度 7°C
湿度 66%
气压 1009 hPa
能见度10公里或以上
多云层高于3300英尺

METAR: LDOS 271130Z 31016KT 9999 BKN033 07/01 Q1009

时间: 13:09 (12:09 UTC)

预报

该预报发布于44分钟前的11:25 UTC
预报有效从27日的 12点(UTC)到 28日的 12点(UTC)
风速15节,风向西北
能见度10公里或以上
少量云层高于3000英尺
几率 40% :
短暂存在
从 27日的 12点(UTC)到 27日的 16点(UTC)
少量云层高于2500英尺, 塔状积云.
多云层高于3000英尺
阵雨
成为
从 27日的 16点(UTC)到 27日的 18点(UTC)
风速15节,风向
成为
从 28日的 04点(UTC)到 28日的 06点(UTC)
风速18节,风向西北
几率 30% :
短暂存在
从 28日的 05点(UTC)到 28日的 12点(UTC)
风速20节,风向西北,有时为30节阵风
能見度: 4000
少量云层高于2500英尺, 积雨云.
多云层高于3000英尺
雷暴, 雨

TAF: LDOS 271125Z 2712/2812 31015KT 9999 FEW030 TX09/2714Z TN02/2800Z PROB40 TEMPO 2712/2716 SHRA FEW025TCU BKN030 BECMG 2716/2718 17015KT BECMG 2804/2806 31018KT PROB30 TEMPO 2805/2812 31020G30KT 4000 TSRA FEW025CB BKN030

超过4000个机场的气象观测和天气预报(METAR&TAF报告)。

可查询的气象台以黄色和红色小点在地图上表示。

将鼠标移到小点上方,可查看气象台名称。

然后点击查看天气观测和预报。

如需切换地图:点击带黑十字的绿色按钮放大地图;点击带横线的绿色按钮缩小地图;或者点击绿色箭头查看邻近地区的地图。


METAR-TAF: